sensor_id;sensor_type;location;lat;lon;timestamp;pressure;altitude;pressure_sealevel;temperature;humidity
59073;BME280;44859;51.934;15.554;2022-07-29T00:00:12;100074.88;;;16.91;42.37
59073;BME280;44859;51.934;15.554;2022-07-29T00:02:59;100078.86;;;16.86;42.65
59073;BME280;44859;51.934;15.554;2022-07-29T00:05:26;100077.93;;;16.85;42.48
59073;BME280;44859;51.934;15.554;2022-07-29T00:08:01;100074.80;;;16.81;42.71
59073;BME280;44859;51.934;15.554;2022-07-29T00:10:28;100073.75;;;16.79;42.69
59073;BME280;44859;51.934;15.554;2022-07-29T00:12:56;100073.93;;;16.78;42.75
59073;BME280;44859;51.934;15.554;2022-07-29T00:15:24;100075.71;;;16.81;42.65
59073;BME280;44859;51.934;15.554;2022-07-29T00:17:51;100072.18;;;16.78;42.94
59073;BME280;44859;51.934;15.554;2022-07-29T00:20:18;100072.64;;;16.74;43.08
59073;BME280;44859;51.934;15.554;2022-07-29T00:22:45;100072.78;;;16.75;43.16
59073;BME280;44859;51.934;15.554;2022-07-29T00:25:20;100074.59;;;16.71;43.30
59073;BME280;44859;51.934;15.554;2022-07-29T00:27:49;100075.48;;;16.69;43.16
59073;BME280;44859;51.934;15.554;2022-07-29T00:30:17;100082.67;;;16.70;43.13
59073;BME280;44859;51.934;15.554;2022-07-29T00:32:44;100079.73;;;16.69;43.24
59073;BME280;44859;51.934;15.554;2022-07-29T00:35:11;100080.31;;;16.68;43.29
59073;BME280;44859;51.934;15.554;2022-07-29T00:37:56;100077.52;;;16.65;43.30
59073;BME280;44859;51.934;15.554;2022-07-29T00:40:28;100076.02;;;16.61;43.46
59073;BME280;44859;51.934;15.554;2022-07-29T00:42:55;100077.48;;;16.58;43.49
59073;BME280;44859;51.934;15.554;2022-07-29T00:45:22;100075.73;;;16.52;43.68
59073;BME280;44859;51.934;15.554;2022-07-29T00:47:51;100074.41;;;16.51;43.63
59073;BME280;44859;51.934;15.554;2022-07-29T00:50:19;100075.05;;;16.50;43.83
59073;BME280;44859;51.934;15.554;2022-07-29T00:52:46;100071.60;;;16.48;43.86
59073;BME280;44859;51.934;15.554;2022-07-29T00:55:14;100063.46;;;16.48;43.84
59073;BME280;44859;51.934;15.554;2022-07-29T00:57:43;100064.08;;;16.46;44.16
59073;BME280;44859;51.934;15.554;2022-07-29T01:00:25;100063.95;;;16.46;44.18
59073;BME280;44859;51.934;15.554;2022-07-29T01:02:53;100064.30;;;16.48;44.10
59073;BME280;44859;51.934;15.554;2022-07-29T01:05:23;100063.35;;;16.52;44.07
59073;BME280;44859;51.934;15.554;2022-07-29T01:07:53;100061.71;;;16.52;44.09
59073;BME280;44859;51.934;15.554;2022-07-29T01:10:40;100070.97;;;16.54;44.20
59073;BME280;44859;51.934;15.554;2022-07-29T01:13:23;100068.31;;;16.57;44.05
59073;BME280;44859;51.934;15.554;2022-07-29T01:15:56;100065.42;;;16.56;44.29
59073;BME280;44859;51.934;15.554;2022-07-29T01:18:34;100063.14;;;16.52;44.12
59073;BME280;44859;51.934;15.554;2022-07-29T01:21:43;100054.55;;;16.46;44.25
59073;BME280;44859;51.934;15.554;2022-07-29T01:27:26;100050.01;;;16.35;44.60
59073;BME280;44859;51.934;15.554;2022-07-29T01:30:22;100047.19;;;16.24;44.82
59073;BME280;44859;51.934;15.554;2022-07-29T01:32:58;100048.71;;;16.20;44.97
59073;BME280;44859;51.934;15.554;2022-07-29T01:35:39;100050.99;;;16.15;45.14
59073;BME280;44859;51.934;15.554;2022-07-29T01:38:17;100047.31;;;16.09;45.22
59073;BME280;44859;51.934;15.554;2022-07-29T01:40:56;100044.48;;;16.04;45.44
59073;BME280;44859;51.934;15.554;2022-07-29T01:46:14;100041.67;;;15.98;45.86
59073;BME280;44859;51.934;15.554;2022-07-29T01:48:48;100042.55;;;15.96;45.84
59073;BME280;44859;51.934;15.554;2022-07-29T01:51:25;100045.02;;;15.93;45.94
59073;BME280;44859;51.934;15.554;2022-07-29T01:56:29;100045.05;;;15.85;46.39
59073;BME280;44859;51.934;15.554;2022-07-29T01:59:04;100036.74;;;15.81;46.52
59073;BME280;44859;51.934;15.554;2022-07-29T02:01:33;100032.13;;;15.79;46.63
59073;BME280;44859;51.934;15.554;2022-07-29T02:04:06;100028.30;;;15.70;46.91
59073;BME280;44859;51.934;15.554;2022-07-29T02:06:46;100023.57;;;15.58;47.09
59073;BME280;44859;51.934;15.554;2022-07-29T02:09:25;100024.16;;;15.52;47.01
59073;BME280;44859;51.934;15.554;2022-07-29T02:11:54;100022.42;;;15.46;47.23
59073;BME280;44859;51.934;15.554;2022-07-29T02:14:23;100021.27;;;15.42;47.45
59073;BME280;44859;51.934;15.554;2022-07-29T02:17:00;100022.46;;;15.39;47.64
59073;BME280;44859;51.934;15.554;2022-07-29T02:19:34;100024.17;;;15.43;47.67
59073;BME280;44859;51.934;15.554;2022-07-29T02:22:10;100021.46;;;15.47;47.72
59073;BME280;44859;51.934;15.554;2022-07-29T02:24:40;100020.82;;;15.49;47.98
59073;BME280;44859;51.934;15.554;2022-07-29T02:27:13;100018.58;;;15.51;47.90
59073;BME280;44859;51.934;15.554;2022-07-29T02:29:41;100014.49;;;15.54;48.01
59073;BME280;44859;51.934;15.554;2022-07-29T02:32:59;100009.90;;;15.53;48.08
59073;BME280;44859;51.934;15.554;2022-07-29T02:35:10;100008.86;;;15.53;48.21
59073;BME280;44859;51.934;15.554;2022-07-29T02:37:44;100006.52;;;15.57;48.08
59073;BME280;44859;51.934;15.554;2022-07-29T02:40:37;100004.05;;;15.57;48.14
59073;BME280;44859;51.934;15.554;2022-07-29T02:43:07;99998.97;;;15.56;48.48
59073;BME280;44859;51.934;15.554;2022-07-29T02:45:36;99998.11;;;15.50;48.68
59073;BME280;44859;51.934;15.554;2022-07-29T02:48:06;99995.67;;;15.49;48.60
59073;BME280;44859;51.934;15.554;2022-07-29T02:51:07;99993.93;;;15.49;48.67
59073;BME280;44859;51.934;15.554;2022-07-29T02:53:42;99991.13;;;15.45;48.74
59073;BME280;44859;51.934;15.554;2022-07-29T02:56:13;99989.30;;;15.41;49.06
59073;BME280;44859;51.934;15.554;2022-07-29T02:58:54;99994.04;;;15.42;49.19
59073;BME280;44859;51.934;15.554;2022-07-29T03:01:24;99989.49;;;15.43;49.11
59073;BME280;44859;51.934;15.554;2022-07-29T03:03:54;99990.96;;;15.40;49.38
59073;BME280;44859;51.934;15.554;2022-07-29T03:06:23;99993.16;;;15.39;49.34
59073;BME280;44859;51.934;15.554;2022-07-29T03:09:08;99994.29;;;15.35;49.59
59073;BME280;44859;51.934;15.554;2022-07-29T03:11:41;99991.94;;;15.31;49.87
59073;BME280;44859;51.934;15.554;2022-07-29T03:14:18;99994.21;;;15.23;50.19
59073;BME280;44859;51.934;15.554;2022-07-29T03:16:46;99994.73;;;15.15;50.52
59073;BME280;44859;51.934;15.554;2022-07-29T03:19:14;99995.90;;;15.10;50.41
59073;BME280;44859;51.934;15.554;2022-07-29T03:21:42;99997.52;;;15.07;50.40
59073;BME280;44859;51.934;15.554;2022-07-29T03:24:31;100003.39;;;15.01;50.52
59073;BME280;44859;51.934;15.554;2022-07-29T03:26:58;100003.08;;;14.95;50.91
59073;BME280;44859;51.934;15.554;2022-07-29T03:29:28;100005.77;;;14.88;51.03
59073;BME280;44859;51.934;15.554;2022-07-29T03:32:04;100007.02;;;14.85;51.24
59073;BME280;44859;51.934;15.554;2022-07-29T03:34:36;100003.29;;;14.83;51.07
59073;BME280;44859;51.934;15.554;2022-07-29T03:37:06;100003.56;;;14.81;51.48
59073;BME280;44859;51.934;15.554;2022-07-29T03:39:38;100004.16;;;14.80;51.62
59073;BME280;44859;51.934;15.554;2022-07-29T03:42:08;100008.29;;;14.79;51.70
59073;BME280;44859;51.934;15.554;2022-07-29T03:44:38;100003.93;;;14.75;51.70
59073;BME280;44859;51.934;15.554;2022-07-29T03:47:09;100003.47;;;14.74;52.01
59073;BME280;44859;51.934;15.554;2022-07-29T03:49:40;100003.04;;;14.76;52.25
59073;BME280;44859;51.934;15.554;2022-07-29T03:52:09;100008.35;;;14.78;52.03
59073;BME280;44859;51.934;15.554;2022-07-29T03:54:37;100006.77;;;14.78;52.31
59073;BME280;44859;51.934;15.554;2022-07-29T03:57:23;100010.42;;;14.82;52.42
59073;BME280;44859;51.934;15.554;2022-07-29T03:59:55;100012.75;;;14.84;52.37
59073;BME280;44859;51.934;15.554;2022-07-29T04:02:23;100017.82;;;14.90;52.40
59073;BME280;44859;51.934;15.554;2022-07-29T04:04:57;100013.35;;;14.94;52.39
59073;BME280;44859;51.934;15.554;2022-07-29T04:07:24;100018.52;;;14.97;52.51
59073;BME280;44859;51.934;15.554;2022-07-29T04:09:51;100015.91;;;14.99;52.67
59073;BME280;44859;51.934;15.554;2022-07-29T04:12:18;100014.78;;;15.00;52.52
59073;BME280;44859;51.934;15.554;2022-07-29T04:14:54;100010.09;;;15.04;52.63
59073;BME280;44859;51.934;15.554;2022-07-29T04:17:21;100009.78;;;15.17;52.59
59073;BME280;44859;51.934;15.554;2022-07-29T04:19:48;100009.48;;;15.16;52.67
59073;BME280;44859;51.934;15.554;2022-07-29T04:22:17;100010.01;;;15.14;52.67
59073;BME280;44859;51.934;15.554;2022-07-29T04:24:46;100008.45;;;15.07;52.78
59073;BME280;44859;51.934;15.554;2022-07-29T04:27:13;100008.32;;;15.01;53.11
59073;BME280;44859;51.934;15.554;2022-07-29T04:29:42;100010.52;;;15.00;52.98
59073;BME280;44859;51.934;15.554;2022-07-29T04:32:31;100011.40;;;15.08;53.02
59073;BME280;44859;51.934;15.554;2022-07-29T04:35:00;100004.88;;;15.24;52.85
59073;BME280;44859;51.934;15.554;2022-07-29T04:37:27;100010.58;;;15.24;52.99
59073;BME280;44859;51.934;15.554;2022-07-29T04:39:54;100010.08;;;15.23;52.92
59073;BME280;44859;51.934;15.554;2022-07-29T04:42:24;100008.90;;;15.25;52.78
59073;BME280;44859;51.934;15.554;2022-07-29T04:44:57;100007.30;;;15.33;52.98
59073;BME280;44859;51.934;15.554;2022-07-29T04:47:36;100009.30;;;15.49;52.80
59073;BME280;44859;51.934;15.554;2022-07-29T04:50:03;100008.15;;;15.51;52.68
59073;BME280;44859;51.934;15.554;2022-07-29T04:52:31;100012.42;;;15.53;52.83
59073;BME280;44859;51.934;15.554;2022-07-29T04:54:59;100014.16;;;15.64;52.64
59073;BME280;44859;51.934;15.554;2022-07-29T04:57:29;100014.66;;;15.78;52.58
59073;BME280;44859;51.934;15.554;2022-07-29T05:00:00;100018.86;;;15.90;52.45
59073;BME280;44859;51.934;15.554;2022-07-29T05:02:29;100017.06;;;15.95;52.24
59073;BME280;44859;51.934;15.554;2022-07-29T05:04:59;100018.59;;;16.09;52.15
59073;BME280;44859;51.934;15.554;2022-07-29T05:07:29;100015.52;;;16.26;51.81
59073;BME280;44859;51.934;15.554;2022-07-29T05:10:10;100017.62;;;16.39;51.70
59073;BME280;44859;51.934;15.554;2022-07-29T05:12:47;100015.68;;;16.51;51.33
59073;BME280;44859;51.934;15.554;2022-07-29T05:15:43;100010.02;;;16.69;50.89
59073;BME280;44859;51.934;15.554;2022-07-29T05:21:46;100008.27;;;16.59;51.21
59073;BME280;44859;51.934;15.554;2022-07-29T05:24:19;100010.98;;;16.56;51.09
59073;BME280;44859;51.934;15.554;2022-07-29T05:30:14;100011.80;;;16.34;51.35
59073;BME280;44859;51.934;15.554;2022-07-29T05:32:59;100015.45;;;16.35;51.55
59073;BME280;44859;51.934;15.554;2022-07-29T05:36:10;100017.38;;;16.22;51.73
59073;BME280;44859;51.934;15.554;2022-07-29T05:38:52;100014.17;;;16.12;51.79
59073;BME280;44859;51.934;15.554;2022-07-29T05:41:38;100010.73;;;16.05;52.12
59073;BME280;44859;51.934;15.554;2022-07-29T05:44:39;100007.67;;;15.98;52.17
59073;BME280;44859;51.934;15.554;2022-07-29T05:47:14;100008.58;;;15.85;52.57
59073;BME280;44859;51.934;15.554;2022-07-29T05:49:52;100010.00;;;15.76;52.82
59073;BME280;44859;51.934;15.554;2022-07-29T05:52:19;100009.38;;;15.80;53.13
59073;BME280;44859;51.934;15.554;2022-07-29T05:54:46;100005.77;;;15.90;53.18
59073;BME280;44859;51.934;15.554;2022-07-29T05:57:23;100010.30;;;15.93;53.05
59073;BME280;44859;51.934;15.554;2022-07-29T05:59:51;100008.92;;;15.88;53.03
59073;BME280;44859;51.934;15.554;2022-07-29T06:02:18;100007.59;;;15.89;53.47
59073;BME280;44859;51.934;15.554;2022-07-29T06:04:53;100006.95;;;15.91;53.56
59073;BME280;44859;51.934;15.554;2022-07-29T06:07:47;100009.70;;;15.92;53.44
59073;BME280;44859;51.934;15.554;2022-07-29T06:10:20;100008.08;;;15.89;53.44
59073;BME280;44859;51.934;15.554;2022-07-29T06:12:52;100007.51;;;15.88;53.45
59073;BME280;44859;51.934;15.554;2022-07-29T06:15:20;100009.19;;;15.91;53.72
59073;BME280;44859;51.934;15.554;2022-07-29T06:17:47;100008.95;;;16.03;53.48
59073;BME280;44859;51.934;15.554;2022-07-29T06:20:29;100019.73;;;16.29;53.29
59073;BME280;44859;51.934;15.554;2022-07-29T06:23:00;100013.10;;;16.43;53.15
59073;BME280;44859;51.934;15.554;2022-07-29T06:25:27;100010.66;;;16.50;52.96
59073;BME280;44859;51.934;15.554;2022-07-29T06:28:02;100011.02;;;16.50;53.05
59073;BME280;44859;51.934;15.554;2022-07-29T06:30:32;100008.81;;;16.46;53.23
59073;BME280;44859;51.934;15.554;2022-07-29T06:33:02;100011.42;;;16.49;53.28
59073;BME280;44859;51.934;15.554;2022-07-29T06:35:33;100012.10;;;16.57;53.18
59073;BME280;44859;51.934;15.554;2022-07-29T06:38:09;100016.01;;;16.67;53.12
59073;BME280;44859;51.934;15.554;2022-07-29T06:41:00;100012.17;;;16.74;53.28
59073;BME280;44859;51.934;15.554;2022-07-29T06:43:34;100015.73;;;16.79;53.10
59073;BME280;44859;51.934;15.554;2022-07-29T06:46:19;100015.16;;;17.00;52.94
59073;BME280;44859;51.934;15.554;2022-07-29T06:48:47;100017.59;;;17.23;52.69
59073;BME280;44859;51.934;15.554;2022-07-29T06:51:15;100019.09;;;17.36;52.42
59073;BME280;44859;51.934;15.554;2022-07-29T06:53:52;100019.24;;;17.53;52.44
59073;BME280;44859;51.934;15.554;2022-07-29T06:56:34;100018.45;;;17.69;52.01
59073;BME280;44859;51.934;15.554;2022-07-29T06:59:10;100017.35;;;17.81;51.99
59073;BME280;44859;51.934;15.554;2022-07-29T07:01:39;100023.89;;;17.87;51.53
59073;BME280;44859;51.934;15.554;2022-07-29T07:04:10;100025.83;;;17.94;51.26
59073;BME280;44859;51.934;15.554;2022-07-29T07:06:38;100025.88;;;17.93;51.59
59073;BME280;44859;51.934;15.554;2022-07-29T07:09:08;100025.73;;;17.88;51.44
59073;BME280;44859;51.934;15.554;2022-07-29T07:11:35;100027.48;;;17.93;51.56
59073;BME280;44859;51.934;15.554;2022-07-29T07:14:06;100029.07;;;17.99;51.25
59073;BME280;44859;51.934;15.554;2022-07-29T07:16:33;100029.98;;;18.00;51.28
59073;BME280;44859;51.934;15.554;2022-07-29T07:19:03;100025.99;;;17.99;51.51
59073;BME280;44859;51.934;15.554;2022-07-29T07:21:30;100026.35;;;17.99;51.45
59073;BME280;44859;51.934;15.554;2022-07-29T07:24:02;100029.35;;;18.02;51.53
59073;BME280;44859;51.934;15.554;2022-07-29T07:26:37;100027.19;;;18.04;51.49
59073;BME280;44859;51.934;15.554;2022-07-29T07:29:12;100029.66;;;18.14;51.42
59073;BME280;44859;51.934;15.554;2022-07-29T07:31:39;100026.48;;;18.30;51.28
59073;BME280;44859;51.934;15.554;2022-07-29T07:34:15;100024.48;;;18.51;51.18
59073;BME280;44859;51.934;15.554;2022-07-29T07:36:56;100023.12;;;18.87;50.86
59073;BME280;44859;51.934;15.554;2022-07-29T07:39:23;100021.16;;;19.18;50.34
59073;BME280;44859;51.934;15.554;2022-07-29T07:41:52;100018.14;;;19.53;49.84
59073;BME280;44859;51.934;15.554;2022-07-29T07:44:22;100020.79;;;19.90;49.04
59073;BME280;44859;51.934;15.554;2022-07-29T07:46:55;100022.52;;;20.24;48.24
59073;BME280;44859;51.934;15.554;2022-07-29T07:49:30;100020.93;;;20.53;47.43
59073;BME280;44859;51.934;15.554;2022-07-29T07:52:00;100018.58;;;20.73;47.09
59073;BME280;44859;51.934;15.554;2022-07-29T07:54:27;100020.22;;;20.96;47.15
59073;BME280;44859;51.934;15.554;2022-07-29T07:56:54;100015.95;;;21.38;46.58
59073;BME280;44859;51.934;15.554;2022-07-29T07:59:22;100016.00;;;21.62;45.51
59073;BME280;44859;51.934;15.554;2022-07-29T08:01:50;100016.69;;;21.64;45.11
59073;BME280;44859;51.934;15.554;2022-07-29T08:04:25;100020.27;;;21.78;44.70
59073;BME280;44859;51.934;15.554;2022-07-29T08:06:56;100017.14;;;21.96;44.40
59073;BME280;44859;51.934;15.554;2022-07-29T08:09:25;100016.04;;;22.04;43.72
59073;BME280;44859;51.934;15.554;2022-07-29T08:11:59;100016.67;;;22.07;43.48
59073;BME280;44859;51.934;15.554;2022-07-29T08:14:30;100014.81;;;22.19;43.11
59073;BME280;44859;51.934;15.554;2022-07-29T08:16:57;100008.67;;;22.39;42.65
59073;BME280;44859;51.934;15.554;2022-07-29T08:19:30;100007.75;;;22.58;41.82
59073;BME280;44859;51.934;15.554;2022-07-29T08:21:57;100008.98;;;22.88;41.69
59073;BME280;44859;51.934;15.554;2022-07-29T08:24:28;100005.80;;;23.27;40.93
59073;BME280;44859;51.934;15.554;2022-07-29T08:27:28;99997.95;;;23.50;40.43
59073;BME280;44859;51.934;15.554;2022-07-29T08:30:15;100005.13;;;23.59;39.86
59073;BME280;44859;51.934;15.554;2022-07-29T08:33:06;99998.10;;;23.79;39.55
59073;BME280;44859;51.934;15.554;2022-07-29T08:35:46;99995.95;;;24.00;39.13
59073;BME280;44859;51.934;15.554;2022-07-29T08:38:28;100002.89;;;24.03;38.44
59073;BME280;44859;51.934;15.554;2022-07-29T08:41:04;99997.47;;;23.98;38.42
59073;BME280;44859;51.934;15.554;2022-07-29T08:43:40;100001.70;;;23.90;38.16
59073;BME280;44859;51.934;15.554;2022-07-29T08:49:21;100003.02;;;23.80;38.27
59073;BME280;44859;51.934;15.554;2022-07-29T08:51:51;100006.64;;;24.05;38.45
59073;BME280;44859;51.934;15.554;2022-07-29T08:54:21;100003.08;;;24.43;37.75
59073;BME280;44859;51.934;15.554;2022-07-29T08:56:52;100004.52;;;24.36;36.94
59073;BME280;44859;51.934;15.554;2022-07-29T08:59:25;100004.97;;;24.33;37.29
59073;BME280;44859;51.934;15.554;2022-07-29T09:02:19;100003.46;;;24.53;37.18
59073;BME280;44859;51.934;15.554;2022-07-29T09:04:50;100001.73;;;24.62;36.60
59073;BME280;44859;51.934;15.554;2022-07-29T09:07:33;100008.69;;;24.84;36.65
59073;BME280;44859;51.934;15.554;2022-07-29T09:10:08;100006.20;;;24.92;36.35
59073;BME280;44859;51.934;15.554;2022-07-29T09:12:36;100007.15;;;24.92;36.01
59073;BME280;44859;51.934;15.554;2022-07-29T09:15:27;100008.00;;;24.49;36.16
59073;BME280;44859;51.934;15.554;2022-07-29T09:18:00;100005.61;;;24.27;36.63
59073;BME280;44859;51.934;15.554;2022-07-29T09:20:52;100004.66;;;24.48;36.74
59073;BME280;44859;51.934;15.554;2022-07-29T09:24:04;99999.82;;;24.88;36.34
59073;BME280;44859;51.934;15.554;2022-07-29T09:26:44;100000.55;;;24.68;36.09
59073;BME280;44859;51.934;15.554;2022-07-29T09:29:18;100001.38;;;24.82;36.37
59073;BME280;44859;51.934;15.554;2022-07-29T09:31:50;99998.95;;;24.86;35.85
59073;BME280;44859;51.934;15.554;2022-07-29T09:34:42;100000.29;;;24.47;36.08
59073;BME280;44859;51.934;15.554;2022-07-29T09:37:32;99994.42;;;24.40;36.37
59073;BME280;44859;51.934;15.554;2022-07-29T09:40:11;99987.93;;;24.42;36.34
59073;BME280;44859;51.934;15.554;2022-07-29T09:42:44;99988.97;;;24.23;36.48
59073;BME280;44859;51.934;15.554;2022-07-29T09:45:29;99992.94;;;24.18;36.74
59073;BME280;44859;51.934;15.554;2022-07-29T09:48:00;99987.86;;;24.23;36.65
59073;BME280;44859;51.934;15.554;2022-07-29T09:50:44;99982.34;;;24.30;36.75
59073;BME280;44859;51.934;15.554;2022-07-29T09:53:11;99986.13;;;24.40;36.57
59073;BME280;44859;51.934;15.554;2022-07-29T09:56:07;99978.30;;;24.47;36.40
59073;BME280;44859;51.934;15.554;2022-07-29T09:58:37;99978.10;;;24.48;36.16
59073;BME280;44859;51.934;15.554;2022-07-29T10:01:08;99972.77;;;24.60;36.40
59073;BME280;44859;51.934;15.554;2022-07-29T10:03:51;99973.21;;;25.09;36.10
59073;BME280;44859;51.934;15.554;2022-07-29T10:06:19;99972.46;;;25.27;35.60
59073;BME280;44859;51.934;15.554;2022-07-29T10:08:46;99976.57;;;25.21;35.69
59073;BME280;44859;51.934;15.554;2022-07-29T10:11:17;99972.65;;;25.26;35.62
59073;BME280;44859;51.934;15.554;2022-07-29T10:13:47;99975.56;;;25.47;35.28
59073;BME280;44859;51.934;15.554;2022-07-29T10:16:17;99970.34;;;25.58;34.75
59073;BME280;44859;51.934;15.554;2022-07-29T10:18:46;99967.07;;;25.74;34.67
59073;BME280;44859;51.934;15.554;2022-07-29T10:21:16;99965.17;;;26.06;34.46
59073;BME280;44859;51.934;15.554;2022-07-29T10:24:07;99959.71;;;26.26;33.98
59073;BME280;44859;51.934;15.554;2022-07-29T10:26:44;99961.80;;;26.28;33.56
59073;BME280;44859;51.934;15.554;2022-07-29T10:29:16;99955.22;;;26.15;33.93
59073;BME280;44859;51.934;15.554;2022-07-29T10:38:04;99950.86;;;25.55;34.36
59073;BME280;44859;51.934;15.554;2022-07-29T10:43:41;99951.44;;;25.21;34.46
59073;BME280;44859;51.934;15.554;2022-07-29T10:46:14;99949.89;;;25.03;34.73
59073;BME280;44859;51.934;15.554;2022-07-29T10:54:38;99937.41;;;24.97;34.95
59073;BME280;44859;51.934;15.554;2022-07-29T10:57:29;99929.13;;;25.16;34.70
59073;BME280;44859;51.934;15.554;2022-07-29T11:02:49;99934.00;;;25.48;34.53
59073;BME280;44859;51.934;15.554;2022-07-29T11:05:24;99935.85;;;25.72;33.95
59073;BME280;44859;51.934;15.554;2022-07-29T11:10:48;99920.45;;;25.53;33.66
59073;BME280;44859;51.934;15.554;2022-07-29T11:16:18;99923.71;;;25.32;33.47
59073;BME280;44859;51.934;15.554;2022-07-29T11:21:44;99930.92;;;25.25;33.62
59073;BME280;44859;51.934;15.554;2022-07-29T11:24:39;99924.60;;;25.27;33.79
59073;BME280;44859;51.934;15.554;2022-07-29T11:27:21;99926.80;;;25.33;33.79
59073;BME280;44859;51.934;15.554;2022-07-29T11:30:00;99923.66;;;25.52;33.42
59073;BME280;44859;51.934;15.554;2022-07-29T11:32:40;99924.70;;;25.49;33.24
59073;BME280;44859;51.934;15.554;2022-07-29T11:35:23;99928.71;;;25.46;33.04
59073;BME280;44859;51.934;15.554;2022-07-29T11:41:19;99926.08;;;25.39;33.50
59073;BME280;44859;51.934;15.554;2022-07-29T11:43:49;99932.39;;;25.51;33.12
59073;BME280;44859;51.934;15.554;2022-07-29T11:49:19;99928.98;;;25.76;32.42
59073;BME280;44859;51.934;15.554;2022-07-29T11:52:02;99920.16;;;26.21;31.97
59073;BME280;44859;51.934;15.554;2022-07-29T11:54:33;99915.64;;;26.69;31.19
59073;BME280;44859;51.934;15.554;2022-07-29T11:57:30;99915.90;;;26.57;30.28
59073;BME280;44859;51.934;15.554;2022-07-29T12:01:12;99912.53;;;26.52;30.17
59073;BME280;44859;51.934;15.554;2022-07-29T12:04:05;99915.05;;;26.38;30.34
59073;BME280;44859;51.934;15.554;2022-07-29T12:06:41;99916.96;;;26.57;30.14
59073;BME280;44859;51.934;15.554;2022-07-29T12:09:15;99909.93;;;26.80;29.76
59073;BME280;44859;51.934;15.554;2022-07-29T12:11:43;99908.70;;;26.92;29.39
59073;BME280;44859;51.934;15.554;2022-07-29T12:14:31;99913.55;;;26.91;29.32
59073;BME280;44859;51.934;15.554;2022-07-29T12:17:00;99903.63;;;26.95;29.61
59073;BME280;44859;51.934;15.554;2022-07-29T12:19:28;99907.92;;;27.03;29.28
59073;BME280;44859;51.934;15.554;2022-07-29T12:22:12;99906.27;;;26.64;29.27
59073;BME280;44859;51.934;15.554;2022-07-29T12:24:51;99911.50;;;26.39;29.78
59073;BME280;44859;51.934;15.554;2022-07-29T12:27:47;99900.86;;;26.50;30.14
59073;BME280;44859;51.934;15.554;2022-07-29T12:30:16;99900.74;;;26.80;29.73
59073;BME280;44859;51.934;15.554;2022-07-29T12:32:54;99901.65;;;26.90;29.46
59073;BME280;44859;51.934;15.554;2022-07-29T12:35:42;99888.14;;;26.94;29.26
59073;BME280;44859;51.934;15.554;2022-07-29T12:38:35;99892.98;;;26.87;29.42
59073;BME280;44859;51.934;15.554;2022-07-29T12:41:03;99889.19;;;26.82;29.27
59073;BME280;44859;51.934;15.554;2022-07-29T12:43:52;99888.09;;;26.72;29.16
59073;BME280;44859;51.934;15.554;2022-07-29T12:46:23;99889.66;;;26.74;29.24
59073;BME280;44859;51.934;15.554;2022-07-29T12:48:54;99884.48;;;26.77;29.17
59073;BME280;44859;51.934;15.554;2022-07-29T12:51:34;99881.20;;;26.71;29.16
59073;BME280;44859;51.934;15.554;2022-07-29T12:54:09;99872.15;;;26.92;29.24
59073;BME280;44859;51.934;15.554;2022-07-29T12:56:44;99872.64;;;27.28;28.78
59073;BME280;44859;51.934;15.554;2022-07-29T12:59:20;99877.60;;;27.62;28.63
59073;BME280;44859;51.934;15.554;2022-07-29T13:01:56;99872.52;;;27.81;28.39
59073;BME280;44859;51.934;15.554;2022-07-29T13:04:59;99880.70;;;27.90;27.49
59073;BME280;44859;51.934;15.554;2022-07-29T13:07:51;99864.13;;;27.74;27.63
59073;BME280;44859;51.934;15.554;2022-07-29T13:10:40;99863.30;;;27.96;27.61
59073;BME280;44859;51.934;15.554;2022-07-29T13:13:14;99871.11;;;28.18;26.66
59073;BME280;44859;51.934;15.554;2022-07-29T13:16:07;99863.25;;;28.12;26.83
59073;BME280;44859;51.934;15.554;2022-07-29T13:18:35;99858.23;;;27.97;26.94
59073;BME280;44859;51.934;15.554;2022-07-29T13:21:15;99862.69;;;27.62;27.06
59073;BME280;44859;51.934;15.554;2022-07-29T13:23:44;99865.11;;;27.52;27.07
59073;BME280;44859;51.934;15.554;2022-07-29T13:26:12;99859.72;;;27.33;27.17
59073;BME280;44859;51.934;15.554;2022-07-29T13:28:39;99858.83;;;27.02;27.29
59073;BME280;44859;51.934;15.554;2022-07-29T13:31:10;99853.16;;;26.74;27.79
59073;BME280;44859;51.934;15.554;2022-07-29T13:33:36;99849.67;;;26.79;28.30
59073;BME280;44859;51.934;15.554;2022-07-29T13:36:03;99843.65;;;26.95;28.13
59073;BME280;44859;51.934;15.554;2022-07-29T13:38:30;99845.38;;;27.05;27.99
59073;BME280;44859;51.934;15.554;2022-07-29T13:40:58;99843.73;;;27.11;28.09
59073;BME280;44859;51.934;15.554;2022-07-29T13:43:25;99840.83;;;27.16;27.79
59073;BME280;44859;51.934;15.554;2022-07-29T13:45:52;99834.08;;;27.03;27.85
59073;BME280;44859;51.934;15.554;2022-07-29T13:48:25;99830.16;;;26.78;27.93
59073;BME280;44859;51.934;15.554;2022-07-29T13:51:01;99830.76;;;26.74;28.19
59073;BME280;44859;51.934;15.554;2022-07-29T13:53:30;99827.96;;;26.97;27.92
59073;BME280;44859;51.934;15.554;2022-07-29T13:55:57;99824.35;;;27.23;27.84
59073;BME280;44859;51.934;15.554;2022-07-29T13:58:31;99823.26;;;27.52;27.65
59073;BME280;44859;51.934;15.554;2022-07-29T14:01:03;99823.14;;;27.73;27.30
59073;BME280;44859;51.934;15.554;2022-07-29T14:03:30;99815.42;;;27.80;27.24
59073;BME280;44859;51.934;15.554;2022-07-29T14:06:00;99818.15;;;27.63;27.55
59073;BME280;44859;51.934;15.554;2022-07-29T14:08:27;99821.94;;;27.39;28.02
59073;BME280;44859;51.934;15.554;2022-07-29T14:10:54;99818.80;;;27.27;28.10
59073;BME280;44859;51.934;15.554;2022-07-29T14:13:21;99821.29;;;26.95;28.45